China Lake, California
Current Conditions -  °F | °C
As of 1:56 PM on Thursday 23 Oct 2014 (Local Time) from KNID Reporting Station
Few Clouds Few Clouds  
Wind Chill: 84°   Ceiling: Unl
Heat Index: 84°   Visibility: 10mi
Dew Point: 29°   Wind: 5mph
Humidity: 14%   Direction: 90°E
Pressure: 30"   Gusts: NA
Location:  35.68°N, 117.68°W
Report Text: KNID 232056Z 09004KT 10SM FEW250 29/M02 A3000 RMK AO2 SLP144 T02891017 58029 $
Loading
Personal Weather Stations






























Interactive Weather Map
Tropical Storm Tracking
New forecast layout! Learn more

10-Day Weather Forecast

Advertisements
Track Severe Weather on mobile